createdAt,value
2022-08-01T00:01:32.784Z,6.18
2022-08-01T00:04:00.947Z,5.93
2022-08-01T00:06:29.697Z,5.45
2022-08-01T00:08:57.903Z,5.65
2022-08-01T00:11:27.463Z,5.63
2022-08-01T00:13:56.016Z,5.72
2022-08-01T00:16:24.684Z,5.60
2022-08-01T00:18:52.871Z,5.32
2022-08-01T00:21:21.105Z,5.57
2022-08-01T00:23:49.566Z,5.68
2022-08-01T00:26:17.718Z,5.45
2022-08-01T00:28:47.226Z,5.07
2022-08-01T00:31:15.376Z,5.47
2022-08-01T00:33:43.559Z,5.80
2022-08-01T00:36:11.751Z,5.60
2022-08-01T00:38:39.941Z,4.85
2022-08-01T00:41:08.302Z,5.38
2022-08-01T00:43:36.483Z,5.60
2022-08-01T00:46:06.034Z,5.28
2022-08-01T00:48:34.267Z,5.28
2022-08-01T00:51:02.503Z,4.93
2022-08-01T00:53:51.331Z,4.97
2022-08-01T00:56:20.655Z,4.60
2022-08-01T00:58:48.893Z,5.45
2022-08-01T01:01:21.704Z,5.20
2022-08-01T01:03:59.450Z,4.95
2022-08-01T01:06:37.869Z,5.38
2022-08-01T01:09:17.294Z,5.72
2022-08-01T01:11:51.139Z,5.53
2022-08-01T01:14:29.649Z,5.47
2022-08-01T01:17:00.700Z,5.18
2022-08-01T01:19:33.013Z,4.85
2022-08-01T01:22:20.205Z,5.10
2022-08-01T01:25:00.397Z,5.55
2022-08-01T01:27:41.643Z,5.20
2022-08-01T01:30:12.206Z,5.22
2022-08-01T01:32:43.823Z,5.32
2022-08-01T01:35:16.126Z,5.00
2022-08-01T01:37:45.516Z,5.43
2022-08-01T01:40:15.996Z,5.70
2022-08-01T01:42:45.245Z,5.40
2022-08-01T01:45:16.155Z,5.15
2022-08-01T01:47:45.922Z,6.00
2022-08-01T01:50:15.593Z,5.00
2022-08-01T01:52:46.390Z,6.03
2022-08-01T01:55:15.591Z,5.25
2022-08-01T01:57:46.117Z,5.40
2022-08-01T02:00:17.628Z,5.10
2022-08-01T02:02:46.805Z,6.25
2022-08-01T02:05:15.962Z,5.68
2022-08-01T02:07:45.243Z,5.90
2022-08-01T02:10:19.552Z,6.10
2022-08-01T02:12:51.024Z,5.35
2022-08-01T02:15:21.695Z,5.75
2022-08-01T02:17:51.777Z,5.85
2022-08-01T02:20:20.129Z,5.53
2022-08-01T02:22:52.315Z,5.45
2022-08-01T02:25:25.931Z,5.95
2022-08-01T02:28:01.756Z,6.00
2022-08-01T02:30:36.276Z,5.93
2022-08-01T02:33:15.447Z,5.60
2022-08-01T02:36:29.031Z,5.82
2022-08-01T02:38:38.019Z,6.28
2022-08-01T02:41:10.555Z,6.65
2022-08-01T02:43:42.460Z,6.47
2022-08-01T02:46:18.337Z,7.13
2022-08-01T02:48:48.003Z,7.45
2022-08-01T02:51:18.276Z,6.55
2022-08-01T02:53:48.323Z,6.97
2022-08-01T02:56:19.539Z,7.53
2022-08-01T02:58:49.097Z,7.23
2022-08-01T03:01:21.791Z,7.70
2022-08-01T03:03:50.454Z,7.30
2022-08-01T03:06:19.967Z,6.53
2022-08-01T03:08:50.861Z,7.18
2022-08-01T03:11:19.906Z,6.90
2022-08-01T03:13:50.625Z,7.05
2022-08-01T03:16:23.497Z,7.47
2022-08-01T03:18:53.881Z,7.93
2022-08-01T03:21:25.423Z,8.70
2022-08-01T03:23:58.325Z,10.82
2022-08-01T03:26:30.211Z,11.52
2022-08-01T03:29:00.508Z,12.07
2022-08-01T03:31:31.386Z,10.75
2022-08-01T03:34:04.024Z,8.98
2022-08-01T03:36:35.564Z,10.43
2022-08-01T03:39:06.481Z,11.50
2022-08-01T03:41:39.917Z,10.95
2022-08-01T03:44:12.854Z,9.90
2022-08-01T03:46:47.072Z,10.18
2022-08-01T03:49:19.856Z,10.90
2022-08-01T03:51:51.071Z,14.50
2022-08-01T03:54:23.260Z,16.90
2022-08-01T03:56:53.532Z,17.55
2022-08-01T03:59:22.738Z,19.55
2022-08-01T04:01:52.817Z,18.47
2022-08-01T04:04:21.412Z,18.15
2022-08-01T04:06:52.206Z,19.52
2022-08-01T04:09:20.517Z,18.63
2022-08-01T04:11:48.950Z,17.23
2022-08-01T04:14:17.276Z,14.80
2022-08-01T04:16:45.751Z,14.63
2022-08-01T04:19:16.180Z,12.65
2022-08-01T04:21:44.590Z,11.27
2022-08-01T04:24:15.792Z,11.00
2022-08-01T04:26:47.580Z,11.27
2022-08-01T04:29:20.068Z,9.75
2022-08-01T04:31:51.226Z,9.48
2022-08-01T04:34:28.963Z,8.68
2022-08-01T04:36:59.717Z,8.93
2022-08-01T04:39:31.891Z,8.65
2022-08-01T04:42:04.907Z,9.15
2022-08-01T04:44:34.487Z,9.23
2022-08-01T04:47:04.828Z,8.45
2022-08-01T04:49:49.031Z,7.95
2022-08-01T04:52:22.961Z,8.73
2022-08-01T04:54:52.841Z,9.25
2022-08-01T04:57:21.019Z,7.78
2022-08-01T04:59:50.636Z,8.40
2022-08-01T05:02:20.574Z,8.70
2022-08-01T05:04:50.108Z,8.32
2022-08-01T05:07:18.314Z,8.52
2022-08-01T05:09:47.253Z,8.70
2022-08-01T05:12:15.518Z,8.32
2022-08-01T05:14:43.701Z,8.85
2022-08-01T05:17:12.096Z,8.85
2022-08-01T05:19:41.748Z,8.77
2022-08-01T05:22:12.067Z,7.63
2022-08-01T05:24:41.852Z,8.18
2022-08-01T05:27:11.551Z,9.27
2022-08-01T05:29:44.781Z,8.85
2022-08-01T05:32:13.335Z,9.32
2022-08-01T05:34:41.526Z,9.15
2022-08-01T05:37:11.204Z,8.45
2022-08-01T05:39:39.399Z,8.82
2022-08-01T05:42:08.149Z,9.60
2022-08-01T05:44:36.531Z,9.35
2022-08-01T05:47:04.932Z,10.32
2022-08-01T05:49:33.117Z,9.05
2022-08-01T05:52:03.129Z,9.70
2022-08-01T05:54:33.066Z,8.73
2022-08-01T05:57:02.783Z,8.30
2022-08-01T05:59:31.032Z,7.80
2022-08-01T06:01:59.628Z,7.20
2022-08-01T06:04:27.881Z,6.50
2022-08-01T06:06:56.163Z,6.63
2022-08-01T06:09:24.408Z,6.35
2022-08-01T06:11:53.980Z,6.95
2022-08-01T06:14:22.134Z,5.30
2022-08-01T06:16:50.291Z,5.95
2022-08-01T06:19:18.458Z,6.13
2022-08-01T06:21:46.604Z,5.20
2022-08-01T06:24:14.767Z,5.22
2022-08-01T06:26:43.492Z,5.20
2022-08-01T06:29:14.185Z,7.03
2022-08-01T06:31:42.291Z,5.75
2022-08-01T06:34:10.483Z,6.43
2022-08-01T06:36:38.817Z,6.25
2022-08-01T06:39:07.022Z,7.15
2022-08-01T06:41:35.236Z,7.50
2022-08-01T06:44:05.432Z,5.70
2022-08-01T06:46:35.257Z,5.30
2022-08-01T06:49:04.472Z,5.40
2022-08-01T06:51:32.816Z,5.25
2022-08-01T06:54:00.948Z,4.20
2022-08-01T06:56:29.247Z,4.80
2022-08-01T06:59:01.747Z,6.15
2022-08-01T07:01:30.229Z,5.95
2022-08-01T07:04:03.911Z,4.90
2022-08-01T07:06:32.075Z,5.10
2022-08-01T07:09:08.247Z,5.20
2022-08-01T07:11:37.758Z,3.78
2022-08-01T07:14:05.902Z,4.38
2022-08-01T07:16:34.087Z,4.53
2022-08-01T07:19:03.730Z,3.97
2022-08-01T07:21:39.786Z,3.90
2022-08-01T07:24:13.325Z,3.53
2022-08-01T07:26:52.420Z,3.80
2022-08-01T07:29:23.828Z,3.70
2022-08-01T07:31:52.045Z,3.15
2022-08-01T07:34:21.776Z,3.63
2022-08-01T07:36:49.923Z,3.33
2022-08-01T07:39:18.467Z,3.92
2022-08-01T07:42:06.426Z,3.22
2022-08-01T07:44:35.018Z,5.10
2022-08-01T07:47:03.157Z,4.72
2022-08-01T07:49:37.517Z,3.63
2022-08-01T07:52:08.153Z,3.42
2022-08-01T07:54:36.607Z,3.17
2022-08-01T07:57:05.899Z,2.65
2022-08-01T07:59:34.034Z,2.40
2022-08-01T08:02:02.509Z,2.45
2022-08-01T08:04:32.174Z,2.35
2022-08-01T08:07:00.380Z,2.75
2022-08-01T08:09:28.571Z,2.38
2022-08-01T08:11:56.731Z,2.67
2022-08-01T08:14:32.487Z,2.50
2022-08-01T08:17:02.046Z,2.30
2022-08-01T08:19:38.023Z,2.55
2022-08-01T08:22:07.983Z,2.35
2022-08-01T08:24:36.631Z,2.25
2022-08-01T08:27:14.021Z,2.38
2022-08-01T08:29:42.867Z,2.35
2022-08-01T08:32:11.427Z,2.50
2022-08-01T08:34:41.076Z,2.15
2022-08-01T08:37:09.704Z,2.13
2022-08-01T08:39:42.053Z,2.30
2022-08-01T08:42:12.411Z,2.90
2022-08-01T08:44:43.634Z,2.50
2022-08-01T08:47:19.287Z,3.10
2022-08-01T08:49:51.713Z,3.00
2022-08-01T08:52:22.247Z,2.53
2022-08-01T08:54:52.143Z,2.47
2022-08-01T08:57:22.720Z,2.78
2022-08-01T08:59:53.006Z,2.45
2022-08-01T09:02:21.393Z,2.13
2022-08-01T09:04:51.981Z,2.55
2022-08-01T09:07:20.225Z,2.60
2022-08-01T09:09:50.204Z,3.17
2022-08-01T09:12:21.376Z,2.80
2022-08-01T09:14:54.492Z,2.60
2022-08-01T09:17:23.227Z,2.70
2022-08-01T09:19:54.852Z,2.58
2022-08-01T09:22:24.553Z,3.20
2022-08-01T09:25:04.386Z,2.67
2022-08-01T09:27:32.969Z,3.05
2022-08-01T09:30:11.534Z,2.90
2022-08-01T09:32:56.551Z,3.28
2022-08-01T09:35:30.070Z,2.83
2022-08-01T09:38:16.440Z,3.10
2022-08-01T09:40:54.061Z,3.40
2022-08-01T09:43:23.765Z,3.28
2022-08-01T09:45:53.108Z,3.30
2022-08-01T09:48:28.799Z,3.17
2022-08-01T09:51:04.580Z,3.08
2022-08-01T09:53:51.372Z,3.10
2022-08-01T09:56:21.610Z,3.20
2022-08-01T09:59:02.903Z,4.20
2022-08-01T10:01:44.515Z,3.17
2022-08-01T10:04:15.067Z,3.78
2022-08-01T10:06:48.208Z,3.50
2022-08-01T10:09:39.652Z,4.00
2022-08-01T10:12:15.865Z,3.72
2022-08-01T10:14:46.124Z,3.65
2022-08-01T10:17:18.312Z,3.83
2022-08-01T10:19:50.636Z,3.72
2022-08-01T10:22:21.604Z,3.70
2022-08-01T10:24:51.429Z,3.80
2022-08-01T10:27:21.501Z,3.20
2022-08-01T10:30:19.917Z,4.10
2022-08-01T10:32:54.943Z,3.85
2022-08-01T10:35:46.841Z,3.72
2022-08-01T10:38:14.876Z,3.78
2022-08-01T10:40:44.240Z,3.60
2022-08-01T10:43:12.877Z,3.67
2022-08-01T10:45:42.174Z,4.65
2022-08-01T10:48:20.627Z,3.80
2022-08-01T10:50:51.769Z,4.00
2022-08-01T10:53:31.625Z,3.95
2022-08-01T10:56:13.168Z,4.10
2022-08-01T10:58:45.999Z,3.63
2022-08-01T11:01:23.834Z,4.10
2022-08-01T11:04:05.900Z,3.75
2022-08-01T11:06:54.556Z,3.67
2022-08-01T11:09:41.573Z,3.53
2022-08-01T11:12:23.342Z,3.80
2022-08-01T11:15:29.838Z,4.15
2022-08-01T11:18:00.473Z,3.85
2022-08-01T11:20:32.384Z,4.22
2022-08-01T11:23:35.917Z,3.97
2022-08-01T11:26:29.025Z,4.25
2022-08-01T11:29:21.880Z,4.18
2022-08-01T11:31:51.276Z,4.13
2022-08-01T11:34:19.725Z,3.88
2022-08-01T11:37:04.031Z,4.65
2022-08-01T11:39:38.151Z,4.60
2022-08-01T11:42:22.357Z,4.55
2022-08-01T11:44:52.567Z,4.30
2022-08-01T11:47:41.121Z,4.25
2022-08-01T11:50:34.985Z,4.32
2022-08-01T11:53:04.658Z,4.85
2022-08-01T11:55:33.553Z,5.00
2022-08-01T11:58:04.598Z,5.07
2022-08-01T12:00:33.358Z,4.40
2022-08-01T12:03:04.474Z,4.95
2022-08-01T12:05:35.450Z,4.82
2022-08-01T12:08:04.566Z,4.28
2022-08-01T12:10:49.628Z,5.30
2022-08-01T12:13:20.486Z,3.63
2022-08-01T12:15:51.426Z,4.75
2022-08-01T12:18:23.019Z,3.70
2022-08-01T12:20:58.207Z,4.15
2022-08-01T12:23:26.455Z,3.72
2022-08-01T12:25:55.264Z,3.65
2022-08-01T12:28:25.614Z,3.63
2022-08-01T12:30:54.240Z,3.63
2022-08-01T12:33:23.543Z,3.88
2022-08-01T12:35:51.710Z,3.58
2022-08-01T12:38:23.707Z,3.30
2022-08-01T12:40:53.597Z,3.55
2022-08-01T12:43:28.630Z,3.42
2022-08-01T12:46:00.433Z,2.70
2022-08-01T12:48:30.172Z,3.38
2022-08-01T12:51:01.507Z,3.03
2022-08-01T12:53:41.025Z,3.30
2022-08-01T12:56:10.631Z,3.28
2022-08-01T12:58:40.349Z,2.80
2022-08-01T13:01:10.197Z,3.20
2022-08-01T13:03:39.067Z,3.15
2022-08-01T13:06:13.636Z,3.00
2022-08-01T13:08:42.185Z,3.28
2022-08-01T13:11:15.242Z,3.03
2022-08-01T13:13:48.392Z,3.53
2022-08-01T13:16:30.396Z,3.47
2022-08-01T13:19:06.938Z,3.05
2022-08-01T13:21:53.970Z,3.10
2022-08-01T13:24:27.017Z,2.92
2022-08-01T13:26:59.790Z,2.75
2022-08-01T13:29:39.074Z,2.70
2022-08-01T13:32:27.937Z,3.05
2022-08-01T13:35:04.034Z,3.35
2022-08-01T13:37:32.390Z,3.25
2022-08-01T13:40:00.820Z,3.20
2022-08-01T13:42:30.243Z,3.38
2022-08-01T13:45:00.004Z,3.33
2022-08-01T13:47:31.554Z,3.03
2022-08-01T13:50:01.943Z,3.38
2022-08-01T13:52:30.588Z,3.42
2022-08-01T13:54:58.923Z,3.13
2022-08-01T13:57:36.438Z,3.10
2022-08-01T14:00:10.341Z,3.60
2022-08-01T14:02:38.648Z,3.50
2022-08-01T14:05:07.716Z,3.40
2022-08-01T14:07:35.906Z,3.47
2022-08-01T14:10:18.304Z,3.25
2022-08-01T14:12:47.723Z,3.22
2022-08-01T14:15:37.809Z,3.28
2022-08-01T14:18:07.863Z,3.15
2022-08-01T14:20:38.357Z,3.30
2022-08-01T14:23:08.984Z,3.22
2022-08-01T14:26:00.795Z,3.33
2022-08-01T14:28:28.493Z,3.55
2022-08-01T14:30:58.497Z,3.42
2022-08-01T14:33:27.232Z,3.20
2022-08-01T14:36:05.393Z,3.70
2022-08-01T14:38:46.225Z,3.80
2022-08-01T14:41:15.270Z,3.63
2022-08-01T14:43:43.454Z,3.40
2022-08-01T14:46:14.209Z,4.10
2022-08-01T14:48:42.546Z,3.83
2022-08-01T14:51:10.910Z,3.90
2022-08-01T14:53:39.805Z,3.88
2022-08-01T14:56:11.194Z,4.32
2022-08-01T14:58:39.394Z,3.95
2022-08-01T15:01:07.632Z,3.30
2022-08-01T15:03:37.127Z,4.00
2022-08-01T15:06:07.401Z,3.83
2022-08-01T15:08:35.902Z,4.10
2022-08-01T15:11:04.106Z,3.90
2022-08-01T15:13:32.309Z,4.00
2022-08-01T15:16:00.630Z,4.20
2022-08-01T15:18:29.212Z,4.00
2022-08-01T15:20:59.369Z,3.95
2022-08-01T15:23:27.624Z,3.58
2022-08-01T15:25:55.801Z,3.90
2022-08-01T15:28:24.120Z,4.18
2022-08-01T15:30:52.257Z,4.10
2022-08-01T15:33:22.440Z,3.83
2022-08-01T15:35:52.881Z,3.90
2022-08-01T15:38:22.871Z,3.90
2022-08-01T15:40:51.036Z,4.00
2022-08-01T15:43:19.241Z,4.10
2022-08-01T15:45:48.633Z,4.40
2022-08-01T15:48:17.504Z,3.78
2022-08-01T15:50:45.832Z,4.00
2022-08-01T15:53:14.026Z,3.67
2022-08-01T15:55:43.914Z,4.32
2022-08-01T15:58:20.923Z,4.50
2022-08-01T16:00:49.202Z,4.40
2022-08-01T16:03:17.399Z,3.97
2022-08-01T16:05:45.812Z,4.30
2022-08-01T16:08:15.099Z,3.83
2022-08-01T16:10:44.757Z,4.47
2022-08-01T16:13:13.757Z,3.83
2022-08-01T16:15:42.334Z,4.10
2022-08-01T16:18:13.096Z,4.00
2022-08-01T16:20:45.531Z,4.05
2022-08-01T16:23:14.725Z,4.07
2022-08-01T16:25:45.162Z,3.75
2022-08-01T16:28:14.522Z,4.32
2022-08-01T16:30:50.976Z,3.72
2022-08-01T16:33:41.431Z,3.55
2022-08-01T16:36:19.981Z,4.18
2022-08-01T16:38:49.162Z,3.80
2022-08-01T16:41:19.383Z,3.97
2022-08-01T16:43:53.907Z,3.78
2022-08-01T16:46:25.149Z,3.92
2022-08-01T16:48:53.749Z,3.83
2022-08-01T16:51:22.065Z,4.00
2022-08-01T16:53:50.434Z,4.05
2022-08-01T16:56:20.292Z,3.92
2022-08-01T16:58:48.614Z,4.40
2022-08-01T17:01:53.521Z,3.70
2022-08-01T17:04:06.723Z,4.18
2022-08-01T17:06:35.146Z,3.72
2022-08-01T17:09:04.648Z,3.70
2022-08-01T17:11:34.211Z,3.92
2022-08-01T17:14:02.435Z,4.13
2022-08-01T17:16:30.706Z,4.13
2022-08-01T17:18:58.861Z,3.83
2022-08-01T17:21:27.082Z,4.13
2022-08-01T17:23:55.247Z,4.38
2022-08-01T17:26:23.421Z,4.18
2022-08-01T17:28:53.044Z,4.47
2022-08-01T17:31:21.168Z,4.18
2022-08-01T17:33:54.527Z,4.25
2022-08-01T17:36:23.272Z,3.97
2022-08-01T17:38:51.464Z,4.00
2022-08-01T17:41:19.678Z,4.50
2022-08-01T17:43:48.166Z,4.40
2022-08-01T17:46:18.394Z,4.03
2022-08-01T17:48:46.853Z,3.95
2022-08-01T17:51:19.365Z,3.83
2022-08-01T17:53:56.671Z,4.50
2022-08-01T17:56:26.974Z,3.85
2022-08-01T17:58:55.170Z,4.55
2022-08-01T18:01:26.716Z,4.22
2022-08-01T18:03:55.934Z,4.20
2022-08-01T18:06:26.205Z,4.50
2022-08-01T18:08:56.282Z,4.50
2022-08-01T18:11:27.334Z,4.60
2022-08-01T18:13:56.503Z,4.53
2022-08-01T18:16:26.221Z,4.32
2022-08-01T18:18:56.033Z,4.30
2022-08-01T18:21:24.374Z,4.30
2022-08-01T18:23:52.679Z,4.20
2022-08-01T18:26:21.484Z,4.32
2022-08-01T18:28:49.717Z,4.57
2022-08-01T18:31:20.291Z,4.78
2022-08-01T18:33:50.365Z,4.75
2022-08-01T18:36:33.003Z,5.30
2022-08-01T18:39:04.373Z,4.82
2022-08-01T18:41:33.350Z,4.32
2022-08-01T18:44:04.264Z,5.05
2022-08-01T18:46:37.638Z,4.78
2022-08-01T18:49:08.908Z,4.82
2022-08-01T18:51:43.407Z,4.93
2022-08-01T18:54:12.962Z,5.05
2022-08-01T18:56:41.140Z,5.57
2022-08-01T18:59:09.436Z,5.68
2022-08-01T19:01:37.941Z,5.88
2022-08-01T19:04:07.999Z,6.03
2022-08-01T19:06:36.620Z,5.20
2022-08-01T19:09:05.309Z,5.93
2022-08-01T19:11:34.336Z,5.10
2022-08-01T19:14:03.214Z,4.97
2022-08-01T19:16:31.742Z,4.82
2022-08-01T19:18:59.932Z,5.45
2022-08-01T19:21:30.132Z,5.97
2022-08-01T19:24:15.592Z,5.50
2022-08-01T19:26:47.277Z,5.35
2022-08-01T19:29:19.670Z,6.25
2022-08-01T19:31:49.380Z,6.45
2022-08-01T19:34:20.041Z,5.68
2022-08-01T19:36:57.913Z,4.80
2022-08-01T19:39:28.093Z,5.15
2022-08-01T19:41:57.737Z,4.82
2022-08-01T19:44:28.954Z,5.20
2022-08-01T19:46:57.391Z,5.30
2022-08-01T19:49:25.627Z,5.22
2022-08-01T19:52:01.341Z,6.18
2022-08-01T19:54:34.726Z,6.13
2022-08-01T19:57:05.091Z,6.20
2022-08-01T19:59:35.977Z,6.18
2022-08-01T20:02:05.636Z,5.75
2022-08-01T20:04:34.850Z,6.53
2022-08-01T20:07:05.017Z,6.63
2022-08-01T20:09:34.530Z,7.00
2022-08-01T20:12:02.760Z,6.38
2022-08-01T20:14:30.958Z,7.53
2022-08-01T20:16:59.163Z,6.60
2022-08-01T20:19:29.510Z,6.40
2022-08-01T20:22:02.984Z,6.90
2022-08-01T20:24:41.017Z,6.63
2022-08-01T20:27:11.957Z,6.60
2022-08-01T20:29:41.024Z,6.32
2022-08-01T20:32:09.871Z,6.78
2022-08-01T20:34:40.200Z,6.85
2022-08-01T20:37:13.025Z,6.55
2022-08-01T20:39:45.134Z,6.93
2022-08-01T20:42:13.917Z,6.70
2022-08-01T20:44:42.667Z,7.22
2022-08-01T20:47:11.319Z,7.60
2022-08-01T20:49:39.828Z,7.22
2022-08-01T20:52:11.725Z,7.90
2022-08-01T20:54:41.372Z,7.22
2022-08-01T20:57:17.099Z,7.30
2022-08-01T20:59:56.717Z,6.97
2022-08-01T21:02:36.941Z,6.88
2022-08-01T21:05:10.875Z,7.30
2022-08-01T21:07:43.692Z,7.10
2022-08-01T21:10:13.602Z,6.90
2022-08-01T21:12:50.857Z,6.82
2022-08-01T21:15:28.270Z,7.13
2022-08-01T21:18:02.483Z,6.50
2022-08-01T21:20:33.110Z,7.28
2022-08-01T21:23:10.893Z,6.95
2022-08-01T21:25:39.272Z,5.82
2022-08-01T21:28:08.874Z,5.40
2022-08-01T21:30:37.577Z,5.82
2022-08-01T21:33:06.413Z,4.85
2022-08-01T21:35:35.905Z,4.55
2022-08-01T21:38:05.633Z,4.07
2022-08-01T21:40:35.520Z,4.50
2022-08-01T21:43:04.889Z,4.97
2022-08-01T21:45:34.440Z,6.20
2022-08-01T21:48:02.894Z,5.78
2022-08-01T21:50:39.917Z,4.82
2022-08-01T21:53:16.991Z,4.38
2022-08-01T21:56:00.757Z,4.32
2022-08-01T21:58:50.793Z,4.63
2022-08-01T22:01:51.453Z,5.50
2022-08-01T22:04:29.393Z,4.35
2022-08-01T22:06:58.552Z,4.60
2022-08-01T22:09:29.970Z,4.68
2022-08-01T22:12:03.693Z,4.70
2022-08-01T22:14:33.788Z,4.40
2022-08-01T22:17:03.638Z,4.68
2022-08-01T22:19:45.565Z,5.22
2022-08-01T22:22:29.292Z,5.03
2022-08-01T22:25:04.537Z,5.00
2022-08-01T22:28:08.194Z,4.90
2022-08-01T22:30:22.029Z,4.82
2022-08-01T22:33:07.172Z,4.65
2022-08-01T22:35:41.204Z,4.72
2022-08-01T22:38:09.964Z,5.47
2022-08-01T22:40:40.947Z,6.00
2022-08-01T22:43:18.919Z,5.40
2022-08-01T22:45:52.863Z,5.32
2022-08-01T22:48:29.435Z,4.88
2022-08-01T22:51:10.593Z,5.28
2022-08-01T22:53:46.888Z,4.63
2022-08-01T22:56:15.429Z,5.78
2022-08-01T22:58:45.805Z,6.07
2022-08-01T23:01:21.377Z,6.70
2022-08-01T23:03:58.064Z,5.80
2022-08-01T23:06:35.959Z,6.47
2022-08-01T23:09:04.781Z,6.65
2022-08-01T23:11:33.868Z,6.80
2022-08-01T23:14:03.737Z,6.45
2022-08-01T23:16:32.494Z,6.38
2022-08-01T23:19:02.384Z,6.70
2022-08-01T23:21:32.874Z,6.68
2022-08-01T23:24:02.483Z,7.15
2022-08-01T23:26:31.466Z,7.45
2022-08-01T23:29:00.206Z,7.10
2022-08-01T23:31:55.312Z,7.32
2022-08-01T23:34:20.257Z,8.60
2022-08-01T23:36:48.496Z,9.43
2022-08-01T23:39:16.653Z,9.10
2022-08-01T23:41:56.024Z,8.93
2022-08-01T23:44:27.420Z,8.85
2022-08-01T23:46:55.610Z,9.57
2022-08-01T23:49:25.381Z,8.00
2022-08-01T23:51:54.054Z,8.57
2022-08-01T23:54:22.528Z,8.25
2022-08-01T23:56:52.496Z,8.82
2022-08-01T23:59:20.903Z,8.23
